Time;durP1;ratioP1;P1;durP2;ratioP2;P2;SDS_P1;SDS_P2;PMS_P1;PMS_P2;Temp;Humidity;BMP_temperature;BMP_pressure;BME280_temperature;BME280_humidity;BME280_pressure;Samples;Min_cycle;Max_cycle;Signal;HPM_P1;HPM_P2
2022/03/14 00:01:38;;;;;;;21.80;11.57;;;1.40;99.20;;;;;;4993021;28;20057;-73
2022/03/14 00:04:04;;;;;;;19.97;11.03;;;1.30;99.70;;;;;;4992906;28;20031;-73
2022/03/14 00:06:29;;;;;;;20.80;11.43;;;1.30;99.90;;;;;;4992803;28;20045;-73
2022/03/14 00:08:57;;;;;;;18.90;11.57;;;1.30;99.90;;;;;;4993011;28;20488;-73
2022/03/14 00:11:23;;;;;;;18.37;10.70;;;1.20;99.90;;;;;;4975538;28;20046;-73
2022/03/14 00:13:50;;;;;;;22.60;11.73;;;1.20;99.90;;;;;;4996118;28;20018;-74
2022/03/14 00:16:23;;;;;;;19.63;10.83;;;1.20;99.90;;;;;;4996977;28;20452;-73
2022/03/14 00:18:55;;;;;;;24.23;10.10;;;1.10;99.90;;;;;;4996718;28;20022;-73
2022/03/14 00:21:25;;;;;;;17.27;10.57;;;1.10;99.90;;;;;;4996631;28;20029;-73
2022/03/14 00:23:55;;;;;;;18.23;11.37;;;1.00;99.90;;;;;;4996587;28;20033;-73
2022/03/14 00:26:25;;;;;;;20.30;11.57;;;1.10;99.90;;;;;;4996528;28;20413;-73
2022/03/14 00:28:51;;;;;;;20.80;11.77;;;1.00;99.90;;;;;;4996606;28;20357;-73
2022/03/14 00:31:16;;;;;;;27.90;12.67;;;1.00;99.90;;;;;;4996482;28;20019;-74
2022/03/14 00:33:42;;;;;;;17.67;10.60;;;1.10;99.90;;;;;;4996557;28;20101;-73
2022/03/14 00:36:08;;;;;;;21.00;12.37;;;1.10;99.90;;;;;;4996657;28;20030;-73
2022/03/14 00:38:38;;;;;;;22.90;12.33;;;1.10;99.90;;;;;;4996316;28;20407;-74
2022/03/14 00:41:08;;;;;;;20.00;11.93;;;1.20;99.90;;;;;;4996345;28;20026;-73
2022/03/14 00:43:35;;;;;;;21.10;12.33;;;1.20;99.90;;;;;;4996232;28;20085;-74
2022/03/14 00:46:01;;;;;;;24.63;12.03;;;1.20;99.90;;;;;;4994501;28;20037;-73
2022/03/14 00:48:27;;;;;;;17.93;11.60;;;1.20;99.90;;;;;;4995851;28;20356;-73
2022/03/14 00:50:54;;;;;;;21.77;12.53;;;1.20;99.90;;;;;;4996034;28;20033;-73
2022/03/14 00:53:20;;;;;;;19.67;11.90;;;1.20;99.90;;;;;;4995750;28;20400;-73
2022/03/14 00:55:46;;;;;;;18.20;11.57;;;1.10;99.90;;;;;;4996015;28;20804;-74
2022/03/14 00:58:12;;;;;;;17.57;11.47;;;1.00;99.90;;;;;;4994787;28;20030;-74
2022/03/14 01:00:38;;;;;;;20.60;12.07;;;1.00;99.90;;;;;;4979021;28;20104;-74
2022/03/14 01:03:04;;;;;;;19.07;10.87;;;0.90;99.90;;;;;;4995895;28;20026;-74
2022/03/14 01:05:30;;;;;;;19.90;10.70;;;0.90;99.90;;;;;;4994576;28;20133;-74
2022/03/14 01:07:56;;;;;;;22.17;11.97;;;0.80;99.90;;;;;;4995438;28;20092;-73
2022/03/14 01:10:22;;;;;;;21.63;11.80;;;0.80;99.90;;;;;;4995738;28;20468;-73
2022/03/14 01:12:48;;;;;;;22.27;11.20;;;0.80;99.90;;;;;;4995592;28;20533;-73
2022/03/14 01:15:13;;;;;;;18.70;10.10;;;0.80;99.90;;;;;;4995517;28;20018;-73
2022/03/14 01:17:40;;;;;;;18.17;11.43;;;0.70;99.90;;;;;;4995508;28;20487;-73
2022/03/14 01:20:08;;;;;;;19.87;11.60;;;0.70;99.90;;;;;;4995571;28;20498;-74
2022/03/14 01:22:34;;;;;;;20.70;11.37;;;0.70;99.90;;;;;;4995284;28;20094;-73
2022/03/14 01:24:59;;;;;;;18.03;10.97;;;0.70;99.90;;;;;;4995030;28;20096;-73
2022/03/14 01:27:25;;;;;;;23.83;11.13;;;0.80;99.90;;;;;;4995261;28;20452;-73
2022/03/14 01:29:50;;;;;;;18.37;10.83;;;0.90;99.90;;;;;;4995561;28;20412;-74
2022/03/14 01:32:16;;;;;;;18.77;10.80;;;1.00;99.90;;;;;;4995326;28;20068;-73
2022/03/14 01:34:41;;;;;;;19.13;11.27;;;0.90;99.90;;;;;;4995440;28;20057;-73
2022/03/14 01:37:08;;;;;;;18.33;11.07;;;0.80;99.90;;;;;;4995374;28;20030;-74
2022/03/14 01:39:34;;;;;;;18.57;11.27;;;0.70;99.90;;;;;;4995286;28;20153;-73
2022/03/14 01:42:00;;;;;;;20.17;11.23;;;0.70;99.90;;;;;;4995209;28;20026;-73
2022/03/14 01:44:26;;;;;;;21.30;12.40;;;0.60;99.90;;;;;;4995175;28;20554;-74
2022/03/14 01:46:53;;;;;;;19.90;11.57;;;0.60;99.90;;;;;;4995081;28;20026;-73
2022/03/14 01:49:19;;;;;;;22.87;11.63;;;0.60;99.90;;;;;;4995343;28;20426;-74
2022/03/14 01:51:45;;;;;;;21.77;11.97;;;0.70;99.90;;;;;;4994900;28;20077;-73
2022/03/14 01:54:11;;;;;;;19.20;11.43;;;0.60;99.90;;;;;;4995129;28;20472;-73
2022/03/14 01:56:39;;;;;;;19.27;11.37;;;0.70;99.90;;;;;;4977528;28;20076;-73
2022/03/14 01:59:05;;;;;;;19.53;11.40;;;0.70;99.90;;;;;;4994871;28;20348;-73
2022/03/14 02:01:31;;;;;;;19.70;11.17;;;0.80;99.90;;;;;;4994853;28;20026;-74
2022/03/14 02:03:59;;;;;;;20.47;11.23;;;0.80;99.90;;;;;;4994635;28;20054;-73
2022/03/14 02:06:25;;;;;;;19.77;11.73;;;0.90;99.90;;;;;;4994721;28;20023;-73
2022/03/14 02:08:50;;;;;;;17.80;11.30;;;1.00;99.90;;;;;;4994589;28;20438;-74
2022/03/14 02:11:17;;;;;;;22.67;11.73;;;1.00;99.90;;;;;;4994743;28;20097;-74
2022/03/14 02:13:42;;;;;;;16.60;10.57;;;1.10;99.90;;;;;;4993009;28;20061;-74
2022/03/14 02:16:08;;;;;;;22.30;12.13;;;1.10;99.90;;;;;;4994448;28;20034;-74
2022/03/14 02:18:33;;;;;;;18.73;11.03;;;1.20;99.90;;;;;;4994292;28;20089;-73
2022/03/14 02:20:59;;;;;;;20.77;11.87;;;1.20;99.90;;;;;;4976694;28;20030;-74
2022/03/14 02:23:24;;;;;;;19.67;12.03;;;1.30;99.90;;;;;;4994525;28;20026;-73
2022/03/14 02:25:52;;;;;;;19.60;10.90;;;1.40;99.90;;;;;;4994300;28;20101;-73
2022/03/14 02:28:22;;;;;;;23.67;11.37;;;1.40;99.90;;;;;;4994494;28;20033;-74
2022/03/14 02:30:49;;;;;;;18.40;10.50;;;1.60;99.90;;;;;;4993133;28;20026;-74
2022/03/14 02:33:15;;;;;;;15.70;10.57;;;1.70;99.90;;;;;;4994424;28;20030;-74
2022/03/14 02:35:41;;;;;;;17.70;10.83;;;1.90;99.90;;;;;;4993132;28;20034;-72
2022/03/14 02:38:09;;;;;;;16.37;10.83;;;2.10;99.90;;;;;;4993995;28;20459;-72
2022/03/14 02:40:37;;;;;;;17.90;10.03;;;2.20;99.90;;;;;;4976485;28;20038;-72
2022/03/14 02:43:03;;;;;;;14.10;8.83;;;2.30;99.90;;;;;;4993990;28;20026;-72
2022/03/14 02:45:29;;;;;;;17.77;10.53;;;2.50;99.90;;;;;;4992893;28;20088;-72
2022/03/14 02:47:54;;;;;;;18.33;9.00;;;2.70;99.90;;;;;;4993857;28;20038;-72
2022/03/14 02:50:20;;;;;;;18.00;10.53;;;2.80;99.90;;;;;;4993883;28;20093;-72
2022/03/14 02:52:46;;;;;;;20.20;10.87;;;2.90;99.90;;;;;;4993808;28;20076;-72
2022/03/14 02:55:12;;;;;;;17.90;10.00;;;3.10;99.90;;;;;;4993963;28;20372;-72
2022/03/14 02:57:38;;;;;;;16.03;9.90;;;3.20;99.90;;;;;;4994012;28;20479;-74
2022/03/14 03:00:07;;;;;;;14.23;9.23;;;3.20;99.90;;;;;;4993940;28;20037;-72
2022/03/14 03:02:35;;;;;;;14.97;9.00;;;3.40;99.90;;;;;;4993866;28;20022;-72
2022/03/14 03:05:05;;;;;;;14.20;9.07;;;3.60;99.90;;;;;;4975988;28;20033;-73
2022/03/14 03:07:31;;;;;;;16.40;10.10;;;3.70;99.90;;;;;;4993377;28;20026;-73
2022/03/14 03:09:57;;;;;;;15.27;9.27;;;3.90;99.90;;;;;;4993571;28;20105;-72
2022/03/14 03:12:30;;;;;;;17.50;9.07;;;4.10;99.90;;;;;;4993285;28;20057;-72
2022/03/14 03:14:55;;;;;;;16.93;9.10;;;4.40;99.90;;;;;;4993663;28;20073;-72
2022/03/14 03:17:21;;;;;;;13.53;8.77;;;4.70;99.90;;;;;;4992399;28;20027;-73
2022/03/14 03:19:47;;;;;;;17.93;9.13;;;4.90;99.90;;;;;;4976088;28;20118;-73
2022/03/14 03:22:12;;;;;;;16.70;9.30;;;5.10;99.90;;;;;;4993559;28;20042;-72
2022/03/14 03:24:38;;;;;;;14.13;9.40;;;5.20;99.90;;;;;;4993703;28;20033;-72
2022/03/14 03:27:04;;;;;;;17.33;9.43;;;5.50;99.90;;;;;;4993394;28;20030;-73
2022/03/14 03:29:29;;;;;;;18.10;9.60;;;5.70;99.90;;;;;;4993451;28;20530;-73
2022/03/14 03:31:55;;;;;;;19.73;9.93;;;5.90;99.90;;;;;;4993530;28;20481;-72
2022/03/14 03:34:21;;;;;;;18.83;9.87;;;6.10;99.90;;;;;;4993057;28;20060;-72
2022/03/14 03:36:46;;;;;;;15.87;9.67;;;6.20;99.90;;;;;;4993326;28;20073;-72
2022/03/14 03:39:12;;;;;;;15.70;10.03;;;6.30;99.90;;;;;;4993450;28;20080;-72
2022/03/14 03:41:38;;;;;;;15.70;9.93;;;6.40;99.90;;;;;;4993454;28;20058;-72
2022/03/14 03:44:04;;;;;;;18.43;10.57;;;6.60;99.90;;;;;;4993801;28;20033;-72
2022/03/14 03:46:30;;;;;;;17.07;11.13;;;6.90;99.90;;;;;;4975392;28;20037;-72
2022/03/14 03:48:55;;;;;;;17.50;10.67;;;7.20;99.90;;;;;;4982401;28;20023;-73
2022/03/14 03:51:21;;;;;;;20.77;11.53;;;7.20;99.90;;;;;;4973738;28;20041;-78
2022/03/14 03:53:47;;;;;;;20.73;11.60;;;7.40;99.90;;;;;;4989895;28;20557;-78
2022/03/14 03:56:12;;;;;;;23.37;12.13;;;7.50;99.90;;;;;;4989847;28;20035;-78
2022/03/14 03:58:38;;;;;;;18.87;12.77;;;7.60;99.90;;;;;;4989320;28;20132;-78
2022/03/14 04:01:03;;;;;;;24.90;13.17;;;7.70;99.90;;;;;;4990333;28;20447;-78
2022/03/14 04:03:29;;;;;;;22.03;13.27;;;7.90;99.90;;;;;;4988985;28;20030;-78
2022/03/14 04:05:55;;;;;;;27.50;15.20;;;7.90;99.90;;;;;;4990469;28;20422;-78
2022/03/14 04:08:21;;;;;;;20.60;13.67;;;7.90;99.90;;;;;;4990069;28;20042;-78
2022/03/14 04:10:53;;;;;;;23.67;13.60;;;7.90;99.90;;;;;;4989459;28;20019;-78
2022/03/14 04:13:23;;;;;;;23.70;15.27;;;7.90;99.90;;;;;;4990674;28;20109;-78
2022/03/14 04:15:51;;;;;;;24.57;14.87;;;7.90;99.90;;;;;;4973068;28;20415;-78
2022/03/14 04:18:25;;;;;;;34.47;14.70;;;7.90;99.90;;;;;;4990545;28;20038;-78
2022/03/14 04:20:52;;;;;;;23.67;14.53;;;7.90;99.90;;;;;;4990167;28;20452;-78
2022/03/14 04:23:19;;;;;;;27.63;14.90;;;8.00;99.90;;;;;;4990680;28;20053;-78
2022/03/14 04:25:46;;;;;;;22.33;15.13;;;8.00;99.90;;;;;;4990270;28;20546;-78
2022/03/14 04:28:12;;;;;;;24.77;14.97;;;7.80;99.90;;;;;;4990441;28;20030;-78
2022/03/14 04:30:38;;;;;;;24.13;14.87;;;7.90;99.90;;;;;;4990591;28;20364;-78
2022/03/14 04:33:04;;;;;;;22.70;14.83;;;7.90;99.90;;;;;;4973200;28;20026;-78
2022/03/14 04:35:30;;;;;;;23.70;14.90;;;7.90;99.90;;;;;;4989160;28;20033;-78
2022/03/14 04:37:55;;;;;;;24.03;15.47;;;7.90;99.90;;;;;;4989954;28;20027;-78
2022/03/14 04:40:22;;;;;;;24.27;15.20;;;7.90;99.90;;;;;;4990409;28;20018;-78
2022/03/14 04:42:47;;;;;;;23.83;15.33;;;7.80;99.90;;;;;;4972913;28;20030;-78
2022/03/14 04:45:13;;;;;;;23.63;14.93;;;7.70;99.90;;;;;;4990431;28;20026;-78
2022/03/14 04:47:38;;;;;;;21.87;13.67;;;7.50;99.90;;;;;;4989034;28;20137;-78
2022/03/14 04:50:06;;;;;;;21.30;15.33;;;7.60;99.90;;;;;;4990178;28;20026;-78
2022/03/14 04:52:31;;;;;;;19.67;13.77;;;7.60;99.90;;;;;;4972835;28;20491;-78
2022/03/14 04:54:57;;;;;;;23.97;14.87;;;7.50;99.90;;;;;;4989693;28;20057;-78
2022/03/14 04:57:23;;;;;;;25.27;15.50;;;7.30;99.90;;;;;;4990204;28;20030;-78
2022/03/14 04:59:49;;;;;;;22.30;15.20;;;7.30;99.90;;;;;;4993173;28;20026;-78
2022/03/14 05:02:22;;;;;;;25.37;14.67;;;7.20;99.90;;;;;;4993612;28;20510;-78
2022/03/14 05:04:49;;;;;;;22.53;13.80;;;7.20;99.90;;;;;;4993696;28;20502;-78
2022/03/14 05:07:14;;;;;;;27.17;14.80;;;7.20;99.90;;;;;;4975841;28;20058;-78
2022/03/14 05:09:40;;;;;;;21.60;13.27;;;7.30;99.90;;;;;;4993445;28;20074;-78
2022/03/14 05:12:06;;;;;;;20.60;14.00;;;7.20;99.90;;;;;;4993257;28;20037;-78
2022/03/14 05:14:31;;;;;;;20.93;13.67;;;7.30;99.90;;;;;;4993430;28;20030;-78
2022/03/14 05:16:57;;;;;;;20.07;13.13;;;7.30;99.90;;;;;;4993211;28;20040;-80
2022/03/14 05:19:23;;;;;;;17.67;12.40;;;7.30;99.90;;;;;;4993455;28;20069;-80
2022/03/14 05:21:48;;;;;;;17.63;12.50;;;7.30;99.90;;;;;;4975753;28;20026;-80
2022/03/14 05:24:14;;;;;;;18.17;12.70;;;7.40;99.90;;;;;;4992110;28;20018;-80
2022/03/14 05:26:40;;;;;;;19.23;11.53;;;7.30;99.90;;;;;;4993141;28;20129;-80
2022/03/14 05:29:06;;;;;;;18.13;10.50;;;7.30;99.90;;;;;;4993211;28;20106;-78
2022/03/14 05:31:31;;;;;;;15.43;10.00;;;7.40;99.90;;;;;;4990410;28;20069;-84
2022/03/14 05:33:57;;;;;;;14.23;8.70;;;7.50;99.90;;;;;;4991610;28;20031;-79
2022/03/14 05:36:22;;;;;;;11.50;8.07;;;7.60;99.90;;;;;;4992374;28;20026;-78
2022/03/14 05:38:48;;;;;;;15.00;8.53;;;7.70;99.90;;;;;;4990058;28;20061;-78
2022/03/14 05:41:14;;;;;;;12.13;8.10;;;7.70;99.90;;;;;;4992515;28;20052;-78
2022/03/14 05:43:40;;;;;;;12.53;8.60;;;7.70;99.90;;;;;;4992396;28;20022;-78
2022/03/14 05:46:08;;;;;;;9.60;7.17;;;7.60;99.90;;;;;;4989486;28;20799;-78
2022/03/14 05:48:35;;;;;;;12.63;7.30;;;7.60;99.90;;;;;;4991663;28;20065;-78
2022/03/14 05:51:04;;;;;;;9.83;6.73;;;7.50;99.90;;;;;;4971982;28;20479;-78
2022/03/14 05:53:31;;;;;;;11.83;6.73;;;7.50;99.90;;;;;;4991775;28;20098;-79
2022/03/14 05:55:57;;;;;;;10.37;6.57;;;7.60;99.90;;;;;;4991830;28;20018;-78
2022/03/14 05:58:23;;;;;;;9.93;7.13;;;7.50;99.90;;;;;;4974545;28;20022;-78
2022/03/14 06:00:48;;;;;;;8.60;6.30;;;7.50;99.90;;;;;;4992113;28;20077;-78
2022/03/14 06:03:19;;;;;;;10.00;6.50;;;7.50;99.90;;;;;;4991883;28;20030;-78
2022/03/14 06:05:48;;;;;;;8.23;6.27;;;7.50;99.90;;;;;;4992131;28;20030;-78
2022/03/14 06:08:14;;;;;;;10.90;6.40;;;7.50;99.90;;;;;;4991345;28;20046;-78
2022/03/14 06:10:39;;;;;;;8.37;5.33;;;7.60;99.90;;;;;;4991860;28;20030;-79
2022/03/14 06:13:05;;;;;;;7.70;5.77;;;7.70;99.90;;;;;;4991821;28;20026;-78
2022/03/14 06:15:30;;;;;;;7.77;5.57;;;7.80;99.90;;;;;;4990592;28;20063;-78
2022/03/14 06:17:56;;;;;;;10.30;5.80;;;7.80;99.90;;;;;;4987138;28;20506;-78
2022/03/14 06:20:22;;;;;;;8.30;5.97;;;7.80;99.90;;;;;;4990175;28;20131;-78
2022/03/14 06:22:47;;;;;;;7.87;5.70;;;7.70;99.90;;;;;;4988454;28;20073;-79
2022/03/14 06:25:14;;;;;;;10.07;5.20;;;7.70;99.90;;;;;;4977268;28;20058;-78
2022/03/14 06:27:40;;;;;;;8.03;5.40;;;7.80;99.90;;;;;;4989020;28;20125;-78
2022/03/14 06:30:07;;;;;;;7.27;5.03;;;7.80;99.90;;;;;;4989194;28;20495;-78
2022/03/14 06:32:37;;;;;;;8.97;4.80;;;7.80;99.90;;;;;;4988891;28;20135;-78
2022/03/14 06:35:11;;;;;;;6.40;5.10;;;7.90;99.90;;;;;;4988286;28;20546;-78
2022/03/14 06:37:38;;;;;;;7.10;4.95;;;7.90;99.90;;;;;;4971802;28;20073;-78
2022/03/14 06:40:06;;;;;;;5.53;4.10;;;7.90;99.90;;;;;;4956639;28;20475;-73
2022/03/14 06:42:32;;;;;;;6.23;4.30;;;8.00;99.90;;;;;;4989880;28;20088;-73
2022/03/14 06:45:02;;;;;;;5.07;3.80;;;8.20;99.90;;;;;;4993810;28;20088;-73
2022/03/14 06:47:28;;;;;;;7.40;3.73;;;8.20;99.90;;;;;;4978776;28;20053;-88
2022/03/14 06:49:53;;;;;;;5.07;3.60;;;8.40;99.90;;;;;;4993364;28;20026;-74
2022/03/14 06:52:19;;;;;;;4.57;3.47;;;8.50;99.90;;;;;;4988881;28;20027;-80
2022/03/14 06:54:45;;;;;;;4.60;3.30;;;8.70;99.90;;;;;;4988705;28;20340;-79
2022/03/14 06:57:11;;;;;;;4.23;3.00;;;8.80;99.90;;;;;;4971525;28;20034;-80
2022/03/14 06:59:37;;;;;;;8.27;4.23;;;8.80;99.90;;;;;;4988561;28;20038;-80
2022/03/14 07:02:03;;;;;;;4.77;2.83;;;8.80;99.90;;;;;;4988860;28;20081;-76
2022/03/14 07:04:29;;;;;;;3.63;2.90;;;8.90;99.90;;;;;;4987001;28;20037;-76
2022/03/14 07:06:55;;;;;;;4.27;2.80;;;9.00;99.90;;;;;;4988493;28;20026;-77
2022/03/14 07:09:21;;;;;;;4.50;2.83;;;9.10;99.90;;;;;;4988281;28;20384;-78
2022/03/14 07:11:51;;;;;;;5.87;2.80;;;9.10;99.90;;;;;;4988522;28;20402;-77
2022/03/14 07:14:19;;;;;;;7.47;2.70;;;9.20;99.90;;;;;;4987794;28;20068;-77
2022/03/14 07:16:44;;;;;;;4.10;2.70;;;9.20;99.90;;;;;;4987530;28;20030;-77
2022/03/14 07:19:10;;;;;;;3.73;2.80;;;9.30;99.90;;;;;;4987945;28;20040;-78
2022/03/14 07:21:36;;;;;;;5.70;2.70;;;9.40;99.90;;;;;;4987723;28;20030;-78
2022/03/14 07:24:02;;;;;;;3.93;2.27;;;9.40;99.90;;;;;;4987159;28;20038;-81
2022/03/14 07:26:27;;;;;;;5.93;2.50;;;9.40;99.90;;;;;;4988189;28;20038;-80
2022/03/14 07:28:53;;;;;;;4.00;2.33;;;9.40;99.90;;;;;;4988230;28;20023;-80
2022/03/14 07:31:20;;;;;;;4.23;2.23;;;9.30;99.90;;;;;;4970465;28;20093;-80
2022/03/14 07:33:47;;;;;;;5.33;2.63;;;9.20;99.90;;;;;;4987969;28;20030;-80
2022/03/14 07:36:13;;;;;;;7.90;2.70;;;9.20;99.90;;;;;;4982646;28;20066;-80
2022/03/14 07:38:38;;;;;;;4.37;2.60;;;9.20;99.90;;;;;;4984330;28;20089;-80
2022/03/14 07:41:04;;;;;;;4.43;2.60;;;9.30;99.90;;;;;;4981784;28;20034;-80
2022/03/14 07:43:30;;;;;;;5.40;2.57;;;9.40;99.90;;;;;;4968514;28;20038;-80
2022/03/14 07:45:55;;;;;;;4.33;2.33;;;9.40;99.90;;;;;;4983304;28;20522;-77
2022/03/14 07:48:21;;;;;;;4.33;2.47;;;9.50;99.90;;;;;;4979295;28;20026;-78
2022/03/14 07:50:46;;;;;;;3.83;2.57;;;9.60;99.90;;;;;;4975113;28;20447;-78
2022/03/14 07:53:12;;;;;;;2.70;1.80;;;9.50;99.90;;;;;;4978898;28;20146;-77
2022/03/14 07:55:38;;;;;;;2.90;1.70;;;9.50;99.90;;;;;;4984331;28;20165;-77
2022/03/14 07:58:04;;;;;;;4.63;1.20;;;9.70;99.90;;;;;;4984168;28;20153;-77
2022/03/14 08:00:29;;;;;;;2.93;1.30;;;9.90;99.90;;;;;;4976727;28;20031;-77
2022/03/14 08:02:55;;;;;;;1.77;1.20;;;10.00;99.90;;;;;;4968007;28;20058;-78
2022/03/14 08:05:26;;;;;;;2.90;1.10;;;10.10;99.90;;;;;;4982191;28;20034;-77
2022/03/14 08:07:53;;;;;;;1.60;1.20;;;10.30;99.90;;;;;;4984844;28;20479;-78
2022/03/14 08:10:18;;;;;;;2.03;1.40;;;10.40;99.90;;;;;;4985966;28;20042;-77
2022/03/14 08:12:55;;;;;;;4.30;1.83;;;10.40;99.90;;;;;;4987165;28;20049;-77
2022/03/14 08:15:28;;;;;;;2.27;1.47;;;10.30;99.90;;;;;;4986892;28;20026;-77
2022/03/14 08:17:55;;;;;;;4.00;1.47;;;10.50;99.90;;;;;;4986869;28;20034;-77
2022/03/14 08:20:23;;;;;;;2.00;1.23;;;10.60;99.90;;;;;;4987141;28;20511;-77
2022/03/14 08:22:50;;;;;;;3.63;1.60;;;10.60;99.90;;;;;;4987792;28;20041;-78
2022/03/14 08:25:20;;;;;;;4.17;1.50;;;10.60;99.90;;;;;;4983405;28;20076;-73
2022/03/14 08:27:47;;;;;;;2.30;1.73;;;10.70;99.90;;;;;;4987255;28;20042;-72
2022/03/14 08:30:13;;;;;;;2.60;1.43;;;10.70;99.90;;;;;;4983480;28;20038;-73
2022/03/14 08:32:42;;;;;;;5.50;1.77;;;10.80;99.90;;;;;;4972620;28;20073;-73
2022/03/14 08:35:09;;;;;;;2.20;1.60;;;10.80;99.90;;;;;;4993961;28;20113;-73
2022/03/14 08:37:36;;;;;;;2.40;1.73;;;10.90;99.90;;;;;;4994780;28;20038;-73
2022/03/14 08:40:05;;;;;;;2.97;1.40;;;10.80;99.90;;;;;;4993962;28;20038;-73
2022/03/14 08:42:31;;;;;;;2.23;1.50;;;10.90;99.90;;;;;;4994151;28;20487;-73
2022/03/14 08:44:56;;;;;;;2.27;1.83;;;10.90;99.90;;;;;;4976002;28;20069;-73
2022/03/14 08:47:22;;;;;;;2.83;1.70;;;10.80;99.90;;;;;;4993266;28;20113;-73
2022/03/14 08:49:47;;;;;;;2.37;1.70;;;10.80;99.90;;;;;;4976498;28;20030;-73
2022/03/14 08:52:13;;;;;;;2.23;1.53;;;10.90;99.90;;;;;;4976116;28;20773;-73
2022/03/14 08:54:38;;;;;;;2.57;1.30;;;11.10;99.90;;;;;;4992411;28;20037;-73
2022/03/14 08:57:04;;;;;;;2.83;1.20;;;11.00;99.90;;;;;;4993436;28;20046;-73
2022/03/14 08:59:30;;;;;;;2.97;1.43;;;10.90;99.90;;;;;;4993730;28;20073;-73
2022/03/14 09:01:55;;;;;;;1.80;1.43;;;11.00;99.90;;;;;;4975544;28;20546;-73
2022/03/14 09:04:21;;;;;;;1.30;1.20;;;11.00;99.90;;;;;;4976244;28;20038;-73
2022/03/14 09:06:47;;;;;;;1.52;1.33;;;11.10;99.90;;;;;;4993707;28;20490;-73
2022/03/14 09:09:14;;;;;;;4.72;1.40;;;11.20;99.90;;;;;;4993899;28;20050;-72
2022/03/14 09:11:40;;;;;;;2.53;1.20;;;11.40;99.90;;;;;;4992344;28;20031;-72
2022/03/14 09:14:06;;;;;;;2.88;1.10;;;11.60;99.90;;;;;;4990060;28;20096;-76
2022/03/14 09:16:35;;;;;;;2.22;1.20;;;11.80;99.90;;;;;;4964875;28;20415;-77
2022/03/14 09:19:01;;;;;;;2.92;1.50;;;12.10;99.90;;;;;;4985612;28;20033;-72
2022/03/14 09:21:27;;;;;;;1.80;1.10;;;12.20;99.90;;;;;;4988113;28;20035;-77
2022/03/14 09:23:53;;;;;;;2.65;1.45;;;12.20;99.90;;;;;;4980714;28;20529;-77
2022/03/14 09:26:19;;;;;;;7.30;1.25;;;12.30;99.90;;;;;;4964618;28;20066;-77
2022/03/14 09:28:44;;;;;;;13.88;1.23;;;12.60;99.90;;;;;;4978929;28;20514;-77
2022/03/14 09:31:13;;;;;;;1.08;0.90;;;12.70;99.90;;;;;;4980566;28;20407;-77
2022/03/14 09:33:39;;;;;;;1.83;1.02;;;12.90;99.90;;;;;;4981977;28;20088;-77
2022/03/14 09:36:06;;;;;;;1.23;1.00;;;13.00;99.90;;;;;;4982888;28;20054;-77
2022/03/14 09:38:32;;;;;;;3.28;1.20;;;12.90;99.90;;;;;;4988943;28;20041;-77
2022/03/14 09:41:01;;;;;;;2.15;1.05;;;12.90;99.90;;;;;;4989738;28;20030;-77
2022/03/14 09:43:28;;;;;;;5.03;1.23;;;12.80;99.90;;;;;;4989621;28;20038;-77
2022/03/14 09:45:54;;;;;;;2.40;1.10;;;12.80;99.90;;;;;;4985912;28;20141;-77
2022/03/14 09:48:22;;;;;;;2.45;0.90;;;12.50;99.90;;;;;;4980298;28;20073;-77
2022/03/14 09:50:48;;;;;;;1.50;1.20;;;12.60;99.90;;;;;;4981394;28;20121;-77
2022/03/14 09:53:15;;;;;;;1.50;1.00;;;12.60;99.90;;;;;;4971589;28;20101;-77
2022/03/14 09:55:47;;;;;;;4.07;0.93;;;12.60;99.90;;;;;;4989730;28;20054;-77
2022/03/14 09:58:18;;;;;;;1.55;0.90;;;12.60;99.90;;;;;;4972286;28;20050;-77
2022/03/14 10:00:44;;;;;;;3.25;1.05;;;12.90;99.90;;;;;;4972008;28;20041;-77
2022/03/14 10:03:12;;;;;;;3.00;1.00;;;13.30;99.90;;;;;;4989627;28;20026;-77
2022/03/14 10:05:37;;;;;;;1.52;0.80;;;13.70;99.90;;;;;;4989501;28;20042;-77
2022/03/14 10:08:03;;;;;;;2.97;1.10;;;13.90;99.90;;;;;;4989316;28;20065;-77
2022/03/14 10:10:29;;;;;;;1.50;1.00;;;14.00;99.90;;;;;;4989498;28;20387;-77
2022/03/14 10:12:57;;;;;;;1.70;1.00;;;13.90;99.90;;;;;;4971793;28;20030;-77
2022/03/14 10:15:27;;;;;;;2.47;0.90;;;13.90;99.90;;;;;;4989611;28;20058;-81
2022/03/14 10:17:54;;;;;;;3.08;0.90;;;13.80;99.90;;;;;;4989158;28;20053;-81
2022/03/14 10:20:21;;;;;;;1.48;0.95;;;13.80;99.90;;;;;;4971485;28;20586;-80
2022/03/14 10:22:48;;;;;;;2.22;1.23;;;13.80;99.90;;;;;;4989321;28;20165;-81
2022/03/14 10:25:19;;;;;;;3.90;1.20;;;13.60;99.90;;;;;;4988909;28;20042;-81
2022/03/14 10:27:49;;;;;;;7.28;1.50;;;13.30;99.90;;;;;;4986624;28;20050;-81
2022/03/14 10:30:27;;;;;;;1.90;1.30;;;13.00;99.90;;;;;;4971799;28;20379;-81
2022/03/14 10:33:08;;;;;;;1.50;1.10;;;12.70;99.90;;;;;;4988661;28;20030;-81
2022/03/14 10:35:39;;;;;;;1.88;1.17;;;12.60;99.90;;;;;;4984732;28;20031;-80
2022/03/14 10:38:08;;;;;;;3.78;1.30;;;12.70;99.90;;;;;;4952303;28;20480;-81
2022/03/14 10:40:42;;;;;;;1.63;1.10;;;12.70;99.90;;;;;;4969649;28;20030;-80
2022/03/14 10:43:27;;;;;;;1.88;1.30;;;13.00;99.90;;;;;;4986618;28;20031;-80
2022/03/14 10:45:57;;;;;;;1.05;0.85;;;13.40;99.90;;;;;;4988514;28;20506;-81
2022/03/14 10:48:34;;;;;;;1.88;0.88;;;13.60;99.90;;;;;;4988784;28;20061;-80
2022/03/14 10:51:05;;;;;;;1.63;1.05;;;13.80;99.90;;;;;;4988329;28;20395;-81
2022/03/14 10:53:31;;;;;;;1.65;1.17;;;14.00;99.90;;;;;;4986703;28;20118;-80
2022/03/14 10:55:58;;;;;;;2.17;1.15;;;14.40;99.90;;;;;;4987831;28;20118;-81
2022/03/14 10:58:30;;;;;;;1.00;0.90;;;14.70;99.90;;;;;;4988619;28;20046;-81
2022/03/14 11:00:57;;;;;;;2.22;0.90;;;15.50;99.40;;;;;;4988526;28;20388;-81
2022/03/14 11:03:31;;;;;;;3.22;1.10;;;15.30;99.00;;;;;;4988261;28;20445;-81
2022/03/14 11:06:17;;;;;;;1.35;1.00;;;15.40;99.10;;;;;;4988095;28;20045;-81
2022/03/14 11:08:47;;;;;;;3.33;1.20;;;15.50;99.00;;;;;;4971020;28;20065;-72
2022/03/14 11:11:22;;;;;;;4.40;1.20;;;15.70;98.10;;;;;;4991309;28;20108;-73
2022/03/14 11:13:49;;;;;;;3.72;1.20;;;15.70;98.30;;;;;;4990751;28;20447;-73
2022/03/14 11:16:18;;;;;;;1.00;0.90;;;16.00;96.80;;;;;;4991115;28;20514;-73
2022/03/14 11:18:45;;;;;;;2.53;1.00;;;16.30;94.80;;;;;;4990072;28;20057;-81
2022/03/14 11:21:14;;;;;;;1.48;1.00;;;15.80;95.10;;;;;;4988185;28;20169;-81
2022/03/14 11:23:45;;;;;;;4.25;1.00;;;15.50;95.40;;;;;;4987764;28;20387;-80
2022/03/14 11:26:11;;;;;;;1.52;1.13;;;15.10;95.50;;;;;;4983218;28;20517;-75
2022/03/14 11:28:40;;;;;;;2.88;1.00;;;14.80;95.80;;;;;;4992778;28;20485;-75
2022/03/14 11:31:05;;;;;;;1.67;1.20;;;14.50;96.30;;;;;;4992497;28;20058;-75
2022/03/14 11:33:32;;;;;;;2.15;1.10;;;14.60;97.30;;;;;;4992361;28;20050;-75
2022/03/14 11:36:02;;;;;;;1.10;0.80;;;15.00;96.70;;;;;;4992463;28;20062;-75
2022/03/14 11:38:29;;;;;;;1.70;1.00;;;15.40;95.70;;;;;;4993070;28;20037;-75
2022/03/14 11:40:56;;;;;;;1.73;1.02;;;15.90;94.60;;;;;;5008234;28;20098;-75
2022/03/14 11:43:22;;;;;;;1.52;0.85;;;16.40;93.50;;;;;;4993173;28;20109;-75
2022/03/14 11:45:50;;;;;;;2.70;0.98;;;16.30;93.30;;;;;;4992948;28;20026;-78
2022/03/14 11:48:17;;;;;;;5.28;1.30;;;16.40;92.80;;;;;;4990494;28;20034;-78
2022/03/14 11:50:48;;;;;;;2.60;1.00;;;16.50;92.40;;;;;;4973452;28;20031;-78
2022/03/14 11:53:21;;;;;;;1.00;0.90;;;16.80;91.70;;;;;;4990158;28;20065;-78
2022/03/14 11:56:07;;;;;;;1.70;1.08;;;16.50;90.60;;;;;;4990661;28;20034;-78
2022/03/14 11:58:40;;;;;;;9.65;1.10;;;16.10;90.90;;;;;;4968831;28;20031;-75
2022/03/14 12:01:12;;;;;;;1.50;1.10;;;16.60;91.20;;;;;;4975351;28;20109;-75
2022/03/14 12:03:41;;;;;;;1.83;1.08;;;17.00;90.20;;;;;;4988335;28;20360;-75
2022/03/14 12:06:08;;;;;;;2.95;1.10;;;17.00;90.30;;;;;;4992831;28;20034;-75
2022/03/14 12:08:36;;;;;;;2.53;1.30;;;17.00;88.60;;;;;;4995792;28;20047;-75
2022/03/14 12:11:38;;;;;;;6.68;1.10;;;17.50;88.50;;;;;;4994977;28;20030;-78
2022/03/14 12:14:04;;;;;;;7.90;1.48;;;17.50;88.10;;;;;;4972625;28;20534;-78
2022/03/14 12:16:37;;;;;;;5.88;1.45;;;17.60;85.50;;;;;;5001516;28;20046;-78
2022/03/14 12:19:33;;;;;;;2.22;1.20;;;17.00;85.00;;;;;;4987948;28;20467;-78
2022/03/14 12:22:01;;;;;;;1.27;1.10;;;16.60;87.80;;;;;;4976471;28;20034;-78
2022/03/14 12:24:36;;;;;;;1.63;1.10;;;16.50;89.00;;;;;;4992525;28;20084;-75
2022/03/14 12:27:22;;;;;;;;;;;16.60;88.50;;;;;;5001772;28;20031;-76
2022/03/14 12:29:49;;;;;;;;;;;17.00;87.00;;;;;;4969021;28;20016;-72
2022/03/14 12:32:35;;;;;;;2.22;1.35;;;17.20;84.80;;;;;;4991106;28;19920;-75
2022/03/14 12:35:15;;;;;;;2.55;1.25;;;17.20;84.80;;;;;;4974061;28;20026;-78
2022/03/14 12:37:50;;;;;;;2.67;1.55;;;17.40;84.20;;;;;;4991136;28;20034;-77
2022/03/14 12:40:21;;;;;;;3.15;1.25;;;17.60;82.10;;;;;;4991349;28;20030;-77
2022/03/14 12:43:12;;;;;;;1.75;1.25;;;17.60;81.30;;;;;;4974644;28;20501;-72
2022/03/14 12:45:42;;;;;;;1.75;1.38;;;17.60;80.70;;;;;;4991451;28;20043;-74
2022/03/14 12:48:17;;;;;;;3.05;1.23;;;17.90;79.00;;;;;;4987194;28;20367;-72